Terminal Aerodrome Forecast
Issued by NWS

Home | Current Version | Previous Version | Text Only | Print | Product List | Glossary On
Versions: 1 2 3 4 5 6 7 8 9 10 11 12 13 14
000
FTUS45 KABQ 270533
TAFSAF
TAF
KSAF 270533Z 2706/2806 01006KT P6SM SCT250
     FM271600 21008KT P6SM SCT100 SCT250
     FM272100 23012G20KT P6SM SCT070 BKN100=

USA.gov is the U.S. government's official web portal to all federal, state and local government web resources and services.